sensor_id;sensor_type;location;lat;lon;timestamp;P1;durP1;ratioP1;P2;durP2;ratioP2
9712;SDS011;4895;50.926;6.870;2023-03-01T00:00:48;14.23;;;6.70;;
9712;SDS011;4895;50.926;6.870;2023-03-01T00:03:13;13.90;;;8.23;;
9712;SDS011;4895;50.926;6.870;2023-03-01T00:05:45;13.77;;;7.47;;
9712;SDS011;4895;50.926;6.870;2023-03-01T00:08:11;12.80;;;6.97;;
9712;SDS011;4895;50.926;6.870;2023-03-01T00:10:36;12.50;;;7.10;;
9712;SDS011;4895;50.926;6.870;2023-03-01T00:13:02;12.63;;;6.50;;
9712;SDS011;4895;50.926;6.870;2023-03-01T00:15:30;13.13;;;6.97;;
9712;SDS011;4895;50.926;6.870;2023-03-01T00:17:55;14.73;;;7.67;;
9712;SDS011;4895;50.926;6.870;2023-03-01T00:20:21;13.57;;;7.23;;
9712;SDS011;4895;50.926;6.870;2023-03-01T00:22:46;10.43;;;6.70;;
9712;SDS011;4895;50.926;6.870;2023-03-01T00:25:11;12.33;;;6.83;;
9712;SDS011;4895;50.926;6.870;2023-03-01T00:27:37;13.37;;;7.53;;
9712;SDS011;4895;50.926;6.870;2023-03-01T00:30:02;14.80;;;7.43;;
9712;SDS011;4895;50.926;6.870;2023-03-01T00:32:28;15.70;;;7.30;;
9712;SDS011;4895;50.926;6.870;2023-03-01T00:34:53;13.47;;;6.97;;
9712;SDS011;4895;50.926;6.870;2023-03-01T00:37:21;11.80;;;7.10;;
9712;SDS011;4895;50.926;6.870;2023-03-01T00:39:48;17.23;;;7.03;;
9712;SDS011;4895;50.926;6.870;2023-03-01T00:42:13;13.83;;;7.10;;
9712;SDS011;4895;50.926;6.870;2023-03-01T00:44:38;12.03;;;7.50;;
9712;SDS011;4895;50.926;6.870;2023-03-01T00:47:04;13.67;;;7.07;;
9712;SDS011;4895;50.926;6.870;2023-03-01T00:49:29;11.70;;;6.67;;
9712;SDS011;4895;50.926;6.870;2023-03-01T00:51:54;12.70;;;7.23;;
9712;SDS011;4895;50.926;6.870;2023-03-01T00:54:20;13.83;;;7.23;;
9712;SDS011;4895;50.926;6.870;2023-03-01T00:56:45;11.60;;;7.20;;
9712;SDS011;4895;50.926;6.870;2023-03-01T00:59:10;12.77;;;6.80;;
9712;SDS011;4895;50.926;6.870;2023-03-01T01:01:35;14.63;;;7.00;;
9712;SDS011;4895;50.926;6.870;2023-03-01T01:04:04;11.53;;;6.40;;
9712;SDS011;4895;50.926;6.870;2023-03-01T01:06:35;12.10;;;6.70;;
9712;SDS011;4895;50.926;6.870;2023-03-01T01:09:03;13.47;;;6.60;;
9712;SDS011;4895;50.926;6.870;2023-03-01T01:11:30;14.07;;;6.93;;
9712;SDS011;4895;50.926;6.870;2023-03-01T01:13:56;15.40;;;7.37;;
9712;SDS011;4895;50.926;6.870;2023-03-01T01:16:22;11.23;;;6.53;;
9712;SDS011;4895;50.926;6.870;2023-03-01T01:18:48;15.70;;;6.70;;
9712;SDS011;4895;50.926;6.870;2023-03-01T01:21:15;15.03;;;7.37;;
9712;SDS011;4895;50.926;6.870;2023-03-01T01:23:42;10.73;;;6.50;;
9712;SDS011;4895;50.926;6.870;2023-03-01T01:26:19;11.70;;;6.97;;
9712;SDS011;4895;50.926;6.870;2023-03-01T01:28:46;11.23;;;6.83;;
9712;SDS011;4895;50.926;6.870;2023-03-01T01:31:12;13.13;;;6.63;;
9712;SDS011;4895;50.926;6.870;2023-03-01T01:33:37;13.30;;;6.90;;
9712;SDS011;4895;50.926;6.870;2023-03-01T01:36:03;16.33;;;7.60;;
9712;SDS011;4895;50.926;6.870;2023-03-01T01:38:32;11.43;;;7.20;;
9712;SDS011;4895;50.926;6.870;2023-03-01T01:40:57;14.43;;;7.30;;
9712;SDS011;4895;50.926;6.870;2023-03-01T01:43:24;12.20;;;7.17;;
9712;SDS011;4895;50.926;6.870;2023-03-01T01:45:52;14.17;;;7.57;;
9712;SDS011;4895;50.926;6.870;2023-03-01T01:48:21;10.50;;;7.10;;
9712;SDS011;4895;50.926;6.870;2023-03-01T01:50:59;14.20;;;7.33;;
9712;SDS011;4895;50.926;6.870;2023-03-01T01:53:24;10.87;;;7.00;;
9712;SDS011;4895;50.926;6.870;2023-03-01T01:55:52;13.60;;;7.67;;
9712;SDS011;4895;50.926;6.870;2023-03-01T01:58:21;9.17;;;6.40;;
9712;SDS011;4895;50.926;6.870;2023-03-01T02:00:48;10.03;;;7.07;;
9712;SDS011;4895;50.926;6.870;2023-03-01T02:03:14;11.90;;;7.10;;
9712;SDS011;4895;50.926;6.870;2023-03-01T02:08:14;12.07;;;7.37;;
9712;SDS011;4895;50.926;6.870;2023-03-01T02:10:41;13.73;;;7.47;;
9712;SDS011;4895;50.926;6.870;2023-03-01T02:13:07;13.50;;;7.33;;
9712;SDS011;4895;50.926;6.870;2023-03-01T02:15:33;18.53;;;7.80;;
9712;SDS011;4895;50.926;6.870;2023-03-01T02:17:59;18.13;;;7.60;;
9712;SDS011;4895;50.926;6.870;2023-03-01T02:22:56;14.53;;;8.53;;
9712;SDS011;4895;50.926;6.870;2023-03-01T02:30:43;13.47;;;8.13;;
9712;SDS011;4895;50.926;6.870;2023-03-01T02:33:29;14.60;;;6.20;;
9712;SDS011;4895;50.926;6.870;2023-03-01T02:36:01;13.30;;;7.50;;
9712;SDS011;4895;50.926;6.870;2023-03-01T02:38:28;13.40;;;8.13;;
9712;SDS011;4895;50.926;6.870;2023-03-01T02:40:54;12.57;;;7.90;;
9712;SDS011;4895;50.926;6.870;2023-03-01T02:43:19;13.03;;;7.00;;
9712;SDS011;4895;50.926;6.870;2023-03-01T02:45:48;12.50;;;7.50;;
9712;SDS011;4895;50.926;6.870;2023-03-01T02:48:15;17.57;;;7.93;;
9712;SDS011;4895;50.926;6.870;2023-03-01T02:55:47;16.07;;;8.27;;
9712;SDS011;4895;50.926;6.870;2023-03-01T02:58:13;14.10;;;7.73;;
9712;SDS011;4895;50.926;6.870;2023-03-01T03:00:40;11.20;;;7.70;;
9712;SDS011;4895;50.926;6.870;2023-03-01T03:03:20;11.90;;;7.27;;
9712;SDS011;4895;50.926;6.870;2023-03-01T03:05:47;14.30;;;6.87;;
9712;SDS011;4895;50.926;6.870;2023-03-01T03:08:13;17.13;;;7.87;;
9712;SDS011;4895;50.926;6.870;2023-03-01T03:10:41;13.30;;;7.70;;
9712;SDS011;4895;50.926;6.870;2023-03-01T03:13:12;13.90;;;8.13;;
9712;SDS011;4895;50.926;6.870;2023-03-01T03:15:38;12.73;;;7.40;;
9712;SDS011;4895;50.926;6.870;2023-03-01T03:18:08;13.33;;;7.50;;
9712;SDS011;4895;50.926;6.870;2023-03-01T03:20:34;13.77;;;8.00;;
9712;SDS011;4895;50.926;6.870;2023-03-01T03:23:01;13.23;;;7.43;;
9712;SDS011;4895;50.926;6.870;2023-03-01T03:25:27;9.93;;;6.80;;
9712;SDS011;4895;50.926;6.870;2023-03-01T03:27:53;14.83;;;8.50;;
9712;SDS011;4895;50.926;6.870;2023-03-01T03:30:21;15.97;;;8.20;;
9712;SDS011;4895;50.926;6.870;2023-03-01T03:32:48;11.97;;;7.47;;
9712;SDS011;4895;50.926;6.870;2023-03-01T03:35:21;13.90;;;7.83;;
9712;SDS011;4895;50.926;6.870;2023-03-01T03:37:51;12.30;;;7.97;;
9712;SDS011;4895;50.926;6.870;2023-03-01T03:40:37;14.53;;;8.20;;
9712;SDS011;4895;50.926;6.870;2023-03-01T03:43:05;15.73;;;7.60;;
9712;SDS011;4895;50.926;6.870;2023-03-01T03:45:37;14.07;;;8.33;;
9712;SDS011;4895;50.926;6.870;2023-03-01T03:48:04;12.50;;;8.10;;
9712;SDS011;4895;50.926;6.870;2023-03-01T03:50:30;15.00;;;7.93;;
9712;SDS011;4895;50.926;6.870;2023-03-01T03:52:56;12.80;;;7.40;;
9712;SDS011;4895;50.926;6.870;2023-03-01T03:55:21;16.43;;;8.10;;
9712;SDS011;4895;50.926;6.870;2023-03-01T03:57:47;15.50;;;7.60;;
9712;SDS011;4895;50.926;6.870;2023-03-01T04:00:20;16.40;;;7.40;;
9712;SDS011;4895;50.926;6.870;2023-03-01T04:02:46;12.90;;;7.67;;
9712;SDS011;4895;50.926;6.870;2023-03-01T04:05:13;11.00;;;7.30;;
9712;SDS011;4895;50.926;6.870;2023-03-01T04:07:40;17.03;;;9.03;;
9712;SDS011;4895;50.926;6.870;2023-03-01T04:10:06;22.67;;;8.63;;
9712;SDS011;4895;50.926;6.870;2023-03-01T04:12:34;15.63;;;8.10;;
9712;SDS011;4895;50.926;6.870;2023-03-01T04:15:00;18.00;;;8.37;;
9712;SDS011;4895;50.926;6.870;2023-03-01T04:17:26;15.90;;;8.50;;
9712;SDS011;4895;50.926;6.870;2023-03-01T04:19:51;13.33;;;8.30;;
9712;SDS011;4895;50.926;6.870;2023-03-01T04:22:17;17.03;;;9.10;;
9712;SDS011;4895;50.926;6.870;2023-03-01T04:24:43;12.80;;;7.43;;
9712;SDS011;4895;50.926;6.870;2023-03-01T04:27:09;13.30;;;8.10;;
9712;SDS011;4895;50.926;6.870;2023-03-01T04:29:34;14.80;;;7.97;;
9712;SDS011;4895;50.926;6.870;2023-03-01T04:32:00;15.53;;;8.07;;
9712;SDS011;4895;50.926;6.870;2023-03-01T04:34:25;15.43;;;9.17;;
9712;SDS011;4895;50.926;6.870;2023-03-01T04:36:51;16.33;;;8.77;;
9712;SDS011;4895;50.926;6.870;2023-03-01T04:39:17;15.63;;;9.50;;
9712;SDS011;4895;50.926;6.870;2023-03-01T04:41:42;13.00;;;7.50;;
9712;SDS011;4895;50.926;6.870;2023-03-01T04:44:08;14.77;;;8.10;;
9712;SDS011;4895;50.926;6.870;2023-03-01T04:46:34;15.43;;;8.23;;
9712;SDS011;4895;50.926;6.870;2023-03-01T04:49:00;15.30;;;8.83;;
9712;SDS011;4895;50.926;6.870;2023-03-01T04:51:25;17.53;;;8.97;;
9712;SDS011;4895;50.926;6.870;2023-03-01T04:53:51;14.60;;;9.40;;
9712;SDS011;4895;50.926;6.870;2023-03-01T04:56:16;18.80;;;8.83;;
9712;SDS011;4895;50.926;6.870;2023-03-01T04:58:43;16.33;;;8.20;;
9712;SDS011;4895;50.926;6.870;2023-03-01T05:01:12;15.93;;;8.60;;
9712;SDS011;4895;50.926;6.870;2023-03-01T05:03:43;17.33;;;8.43;;
9712;SDS011;4895;50.926;6.870;2023-03-01T05:06:09;18.80;;;8.47;;
9712;SDS011;4895;50.926;6.870;2023-03-01T05:08:35;17.70;;;9.33;;
9712;SDS011;4895;50.926;6.870;2023-03-01T05:11:04;15.73;;;9.07;;
9712;SDS011;4895;50.926;6.870;2023-03-01T05:13:30;13.57;;;8.80;;
9712;SDS011;4895;50.926;6.870;2023-03-01T05:15:57;13.80;;;8.40;;
9712;SDS011;4895;50.926;6.870;2023-03-01T05:18:24;17.03;;;8.87;;
9712;SDS011;4895;50.926;6.870;2023-03-01T05:20:53;17.33;;;8.70;;
9712;SDS011;4895;50.926;6.870;2023-03-01T05:23:21;15.30;;;9.10;;
9712;SDS011;4895;50.926;6.870;2023-03-01T05:25:47;16.50;;;8.90;;
9712;SDS011;4895;50.926;6.870;2023-03-01T05:28:12;19.90;;;8.43;;
9712;SDS011;4895;50.926;6.870;2023-03-01T05:30:38;17.27;;;9.03;;
9712;SDS011;4895;50.926;6.870;2023-03-01T05:33:07;15.53;;;9.33;;
9712;SDS011;4895;50.926;6.870;2023-03-01T05:35:38;15.13;;;9.70;;
9712;SDS011;4895;50.926;6.870;2023-03-01T05:38:07;15.40;;;9.23;;
9712;SDS011;4895;50.926;6.870;2023-03-01T05:40:33;17.20;;;8.70;;
9712;SDS011;4895;50.926;6.870;2023-03-01T05:42:59;12.73;;;8.80;;
9712;SDS011;4895;50.926;6.870;2023-03-01T05:45:25;17.40;;;9.13;;
9712;SDS011;4895;50.926;6.870;2023-03-01T05:47:51;17.20;;;10.20;;
9712;SDS011;4895;50.926;6.870;2023-03-01T05:50:21;16.53;;;10.07;;
9712;SDS011;4895;50.926;6.870;2023-03-01T05:52:48;18.03;;;9.40;;
9712;SDS011;4895;50.926;6.870;2023-03-01T05:55:16;15.53;;;9.67;;
9712;SDS011;4895;50.926;6.870;2023-03-01T05:57:42;20.00;;;10.50;;
9712;SDS011;4895;50.926;6.870;2023-03-01T06:00:08;14.63;;;8.77;;
9712;SDS011;4895;50.926;6.870;2023-03-01T06:02:34;16.17;;;9.77;;
9712;SDS011;4895;50.926;6.870;2023-03-01T06:05:00;17.63;;;10.20;;
9712;SDS011;4895;50.926;6.870;2023-03-01T06:07:25;16.20;;;10.23;;
9712;SDS011;4895;50.926;6.870;2023-03-01T06:09:51;19.70;;;9.97;;
9712;SDS011;4895;50.926;6.870;2023-03-01T06:12:16;21.43;;;10.13;;
9712;SDS011;4895;50.926;6.870;2023-03-01T06:14:42;16.17;;;9.50;;
9712;SDS011;4895;50.926;6.870;2023-03-01T06:17:07;17.00;;;9.47;;
9712;SDS011;4895;50.926;6.870;2023-03-01T06:19:32;18.33;;;9.33;;
9712;SDS011;4895;50.926;6.870;2023-03-01T06:21:57;18.53;;;10.23;;
9712;SDS011;4895;50.926;6.870;2023-03-01T06:24:23;24.37;;;9.57;;
9712;SDS011;4895;50.926;6.870;2023-03-01T06:26:48;16.10;;;10.20;;
9712;SDS011;4895;50.926;6.870;2023-03-01T06:29:13;16.30;;;9.10;;
9712;SDS011;4895;50.926;6.870;2023-03-01T06:31:39;23.63;;;9.90;;
9712;SDS011;4895;50.926;6.870;2023-03-01T06:34:04;22.43;;;10.87;;
9712;SDS011;4895;50.926;6.870;2023-03-01T06:36:30;24.53;;;10.60;;
9712;SDS011;4895;50.926;6.870;2023-03-01T06:38:55;17.43;;;9.40;;
9712;SDS011;4895;50.926;6.870;2023-03-01T06:41:20;22.37;;;11.00;;
9712;SDS011;4895;50.926;6.870;2023-03-01T06:43:46;19.30;;;9.87;;
9712;SDS011;4895;50.926;6.870;2023-03-01T06:46:11;22.87;;;9.80;;
9712;SDS011;4895;50.926;6.870;2023-03-01T06:48:36;19.07;;;10.30;;
9712;SDS011;4895;50.926;6.870;2023-03-01T06:51:02;16.83;;;9.80;;
9712;SDS011;4895;50.926;6.870;2023-03-01T06:53:28;19.70;;;11.60;;
9712;SDS011;4895;50.926;6.870;2023-03-01T06:55:55;21.03;;;10.67;;
9712;SDS011;4895;50.926;6.870;2023-03-01T06:58:21;26.03;;;10.90;;
9712;SDS011;4895;50.926;6.870;2023-03-01T07:00:46;23.20;;;11.37;;
9712;SDS011;4895;50.926;6.870;2023-03-01T07:03:11;23.17;;;10.77;;
9712;SDS011;4895;50.926;6.870;2023-03-01T07:05:37;23.30;;;11.57;;
9712;SDS011;4895;50.926;6.870;2023-03-01T07:08:02;21.80;;;11.07;;
9712;SDS011;4895;50.926;6.870;2023-03-01T07:10:27;19.70;;;10.73;;
9712;SDS011;4895;50.926;6.870;2023-03-01T07:12:56;17.33;;;10.40;;
9712;SDS011;4895;50.926;6.870;2023-03-01T07:15:22;19.77;;;10.10;;
9712;SDS011;4895;50.926;6.870;2023-03-01T07:17:48;20.90;;;11.00;;
9712;SDS011;4895;50.926;6.870;2023-03-01T07:20:15;21.20;;;10.43;;
9712;SDS011;4895;50.926;6.870;2023-03-01T07:22:41;21.57;;;12.20;;
9712;SDS011;4895;50.926;6.870;2023-03-01T07:25:07;20.27;;;11.07;;
9712;SDS011;4895;50.926;6.870;2023-03-01T07:27:33;18.23;;;10.70;;
9712;SDS011;4895;50.926;6.870;2023-03-01T07:29:58;15.93;;;10.80;;
9712;SDS011;4895;50.926;6.870;2023-03-01T07:32:24;23.20;;;11.37;;
9712;SDS011;4895;50.926;6.870;2023-03-01T07:34:50;27.20;;;11.80;;
9712;SDS011;4895;50.926;6.870;2023-03-01T07:37:16;21.37;;;11.57;;
9712;SDS011;4895;50.926;6.870;2023-03-01T07:39:41;23.50;;;12.43;;
9712;SDS011;4895;50.926;6.870;2023-03-01T07:42:07;25.03;;;12.30;;
9712;SDS011;4895;50.926;6.870;2023-03-01T07:44:32;25.90;;;12.20;;
9712;SDS011;4895;50.926;6.870;2023-03-01T07:46:59;23.13;;;12.17;;
9712;SDS011;4895;50.926;6.870;2023-03-01T07:49:24;22.40;;;12.77;;
9712;SDS011;4895;50.926;6.870;2023-03-01T07:51:51;19.97;;;11.73;;
9712;SDS011;4895;50.926;6.870;2023-03-01T07:54:16;18.40;;;10.90;;
9712;SDS011;4895;50.926;6.870;2023-03-01T07:56:42;30.00;;;12.57;;
9712;SDS011;4895;50.926;6.870;2023-03-01T07:59:08;19.63;;;11.30;;
9712;SDS011;4895;50.926;6.870;2023-03-01T08:01:33;19.20;;;11.67;;
9712;SDS011;4895;50.926;6.870;2023-03-01T08:03:58;18.53;;;10.90;;
9712;SDS011;4895;50.926;6.870;2023-03-01T08:06:24;24.27;;;11.80;;
9712;SDS011;4895;50.926;6.870;2023-03-01T08:08:49;23.03;;;13.13;;
9712;SDS011;4895;50.926;6.870;2023-03-01T08:11:15;24.90;;;12.97;;
9712;SDS011;4895;50.926;6.870;2023-03-01T08:13:41;26.17;;;13.57;;
9712;SDS011;4895;50.926;6.870;2023-03-01T08:16:11;24.20;;;12.80;;
9712;SDS011;4895;50.926;6.870;2023-03-01T08:18:37;21.50;;;11.90;;
9712;SDS011;4895;50.926;6.870;2023-03-01T08:21:06;24.77;;;13.70;;
9712;SDS011;4895;50.926;6.870;2023-03-01T08:23:32;23.23;;;13.00;;
9712;SDS011;4895;50.926;6.870;2023-03-01T08:26:08;23.20;;;11.63;;
9712;SDS011;4895;50.926;6.870;2023-03-01T08:28:35;23.30;;;11.90;;
9712;SDS011;4895;50.926;6.870;2023-03-01T08:31:00;22.70;;;11.50;;
9712;SDS011;4895;50.926;6.870;2023-03-01T08:33:26;19.20;;;11.63;;
9712;SDS011;4895;50.926;6.870;2023-03-01T08:35:51;19.60;;;11.20;;
9712;SDS011;4895;50.926;6.870;2023-03-01T08:38:17;23.27;;;11.70;;
9712;SDS011;4895;50.926;6.870;2023-03-01T08:40:42;27.43;;;11.17;;
9712;SDS011;4895;50.926;6.870;2023-03-01T08:43:07;20.10;;;12.40;;
9712;SDS011;4895;50.926;6.870;2023-03-01T08:45:32;18.90;;;11.63;;
9712;SDS011;4895;50.926;6.870;2023-03-01T08:47:58;18.73;;;11.50;;
9712;SDS011;4895;50.926;6.870;2023-03-01T08:50:23;24.77;;;13.53;;
9712;SDS011;4895;50.926;6.870;2023-03-01T08:52:49;20.33;;;12.47;;
9712;SDS011;4895;50.926;6.870;2023-03-01T08:55:15;17.30;;;10.97;;
9712;SDS011;4895;50.926;6.870;2023-03-01T08:57:42;17.27;;;11.33;;
9712;SDS011;4895;50.926;6.870;2023-03-01T09:00:07;17.07;;;11.57;;
9712;SDS011;4895;50.926;6.870;2023-03-01T09:02:33;19.80;;;11.53;;
9712;SDS011;4895;50.926;6.870;2023-03-01T09:04:59;20.60;;;11.80;;
9712;SDS011;4895;50.926;6.870;2023-03-01T09:07:25;20.10;;;11.60;;
9712;SDS011;4895;50.926;6.870;2023-03-01T09:09:53;19.13;;;11.67;;
9712;SDS011;4895;50.926;6.870;2023-03-01T09:12:19;18.37;;;10.67;;
9712;SDS011;4895;50.926;6.870;2023-03-01T09:14:44;18.57;;;11.10;;
9712;SDS011;4895;50.926;6.870;2023-03-01T09:17:09;17.90;;;11.97;;
9712;SDS011;4895;50.926;6.870;2023-03-01T09:19:35;21.87;;;11.93;;
9712;SDS011;4895;50.926;6.870;2023-03-01T09:22:00;19.93;;;11.23;;
9712;SDS011;4895;50.926;6.870;2023-03-01T09:24:25;16.20;;;10.80;;
9712;SDS011;4895;50.926;6.870;2023-03-01T09:26:53;18.80;;;11.07;;
9712;SDS011;4895;50.926;6.870;2023-03-01T09:29:20;23.60;;;11.03;;
9712;SDS011;4895;50.926;6.870;2023-03-01T09:31:45;15.77;;;10.70;;
9712;SDS011;4895;50.926;6.870;2023-03-01T09:34:11;14.83;;;9.83;;
9712;SDS011;4895;50.926;6.870;2023-03-01T09:36:36;18.10;;;10.63;;
9712;SDS011;4895;50.926;6.870;2023-03-01T09:39:02;15.77;;;10.13;;
9712;SDS011;4895;50.926;6.870;2023-03-01T09:41:41;16.73;;;9.70;;
9712;SDS011;4895;50.926;6.870;2023-03-01T09:47:11;16.83;;;10.83;;
9712;SDS011;4895;50.926;6.870;2023-03-01T09:49:42;22.60;;;9.93;;
9712;SDS011;4895;50.926;6.870;2023-03-01T09:55:00;17.77;;;9.23;;
9712;SDS011;4895;50.926;6.870;2023-03-01T10:02:44;18.93;;;10.00;;
9712;SDS011;4895;50.926;6.870;2023-03-01T10:07:55;14.70;;;10.00;;
9712;SDS011;4895;50.926;6.870;2023-03-01T10:12:54;22.30;;;10.00;;
9712;SDS011;4895;50.926;6.870;2023-03-01T10:18:20;14.53;;;10.33;;
9712;SDS011;4895;50.926;6.870;2023-03-01T10:20:53;17.60;;;10.13;;
9712;SDS011;4895;50.926;6.870;2023-03-01T10:23:19;16.90;;;10.20;;
9712;SDS011;4895;50.926;6.870;2023-03-01T10:25:54;18.90;;;11.90;;
9712;SDS011;4895;50.926;6.870;2023-03-01T10:31:18;18.30;;;10.30;;
9712;SDS011;4895;50.926;6.870;2023-03-01T10:33:47;18.43;;;10.53;;
9712;SDS011;4895;50.926;6.870;2023-03-01T10:36:16;15.90;;;9.40;;
9712;SDS011;4895;50.926;6.870;2023-03-01T10:39:03;16.73;;;9.90;;
9712;SDS011;4895;50.926;6.870;2023-03-01T10:41:28;17.70;;;9.90;;
9712;SDS011;4895;50.926;6.870;2023-03-01T10:43:55;15.90;;;9.97;;
9712;SDS011;4895;50.926;6.870;2023-03-01T10:46:26;14.57;;;9.77;;
9712;SDS011;4895;50.926;6.870;2023-03-01T10:51:37;16.13;;;10.53;;
9712;SDS011;4895;50.926;6.870;2023-03-01T10:54:05;15.27;;;9.73;;
9712;SDS011;4895;50.926;6.870;2023-03-01T10:56:47;24.93;;;11.50;;
9712;SDS011;4895;50.926;6.870;2023-03-01T10:59:22;18.60;;;10.77;;
9712;SDS011;4895;50.926;6.870;2023-03-01T11:05:25;18.03;;;10.33;;
9712;SDS011;4895;50.926;6.870;2023-03-01T11:07:47;15.77;;;9.63;;
9712;SDS011;4895;50.926;6.870;2023-03-01T11:10:35;17.83;;;10.80;;
9712;SDS011;4895;50.926;6.870;2023-03-01T11:13:14;18.10;;;10.07;;
9712;SDS011;4895;50.926;6.870;2023-03-01T11:15:41;14.27;;;9.63;;
9712;SDS011;4895;50.926;6.870;2023-03-01T11:18:22;15.40;;;9.73;;
9712;SDS011;4895;50.926;6.870;2023-03-01T11:20:48;20.63;;;10.93;;
9712;SDS011;4895;50.926;6.870;2023-03-01T11:23:14;14.47;;;8.47;;
9712;SDS011;4895;50.926;6.870;2023-03-01T11:25:42;18.40;;;10.23;;
9712;SDS011;4895;50.926;6.870;2023-03-01T11:28:10;14.80;;;9.40;;
9712;SDS011;4895;50.926;6.870;2023-03-01T11:30:41;14.20;;;9.10;;
9712;SDS011;4895;50.926;6.870;2023-03-01T11:36:01;17.33;;;9.57;;
9712;SDS011;4895;50.926;6.870;2023-03-01T11:38:30;15.37;;;9.77;;
9712;SDS011;4895;50.926;6.870;2023-03-01T11:41:11;18.13;;;10.20;;
9712;SDS011;4895;50.926;6.870;2023-03-01T11:44:01;17.17;;;10.00;;
9712;SDS011;4895;50.926;6.870;2023-03-01T11:52:36;18.27;;;11.50;;
9712;SDS011;4895;50.926;6.870;2023-03-01T11:55:20;14.17;;;10.17;;
9712;SDS011;4895;50.926;6.870;2023-03-01T12:03:23;17.20;;;9.10;;
9712;SDS011;4895;50.926;6.870;2023-03-01T12:08:38;15.33;;;10.33;;
9712;SDS011;4895;50.926;6.870;2023-03-01T12:22:28;15.67;;;10.23;;
9712;SDS011;4895;50.926;6.870;2023-03-01T12:24:57;12.80;;;9.77;;
9712;SDS011;4895;50.926;6.870;2023-03-01T12:41:21;16.13;;;10.30;;
9712;SDS011;4895;50.926;6.870;2023-03-01T12:49:41;19.60;;;9.30;;
9712;SDS011;4895;50.926;6.870;2023-03-01T12:52:56;16.73;;;9.40;;
9712;SDS011;4895;50.926;6.870;2023-03-01T12:55:08;18.53;;;9.87;;
9712;SDS011;4895;50.926;6.870;2023-03-01T12:57:47;15.40;;;9.33;;
9712;SDS011;4895;50.926;6.870;2023-03-01T13:00:28;15.43;;;9.60;;
9712;SDS011;4895;50.926;6.870;2023-03-01T13:08:50;14.60;;;9.70;;
9712;SDS011;4895;50.926;6.870;2023-03-01T13:11:25;18.20;;;10.43;;
9712;SDS011;4895;50.926;6.870;2023-03-01T13:13:50;13.40;;;9.40;;
9712;SDS011;4895;50.926;6.870;2023-03-01T13:19:06;16.10;;;9.20;;
9712;SDS011;4895;50.926;6.870;2023-03-01T13:21:34;18.67;;;9.57;;
9712;SDS011;4895;50.926;6.870;2023-03-01T13:23:59;16.83;;;8.90;;
9712;SDS011;4895;50.926;6.870;2023-03-01T13:26:24;12.87;;;8.80;;
9712;SDS011;4895;50.926;6.870;2023-03-01T13:28:53;13.77;;;8.97;;
9712;SDS011;4895;50.926;6.870;2023-03-01T13:33:53;14.37;;;8.97;;
9712;SDS011;4895;50.926;6.870;2023-03-01T13:44:48;15.33;;;9.43;;
9712;SDS011;4895;50.926;6.870;2023-03-01T13:46:49;12.33;;;7.90;;
9712;SDS011;4895;50.926;6.870;2023-03-01T13:49:16;16.37;;;8.27;;
9712;SDS011;4895;50.926;6.870;2023-03-01T13:51:47;14.93;;;9.10;;
9712;SDS011;4895;50.926;6.870;2023-03-01T13:54:14;12.87;;;8.80;;
9712;SDS011;4895;50.926;6.870;2023-03-01T13:56:40;14.30;;;9.50;;
9712;SDS011;4895;50.926;6.870;2023-03-01T13:59:06;14.37;;;9.30;;
9712;SDS011;4895;50.926;6.870;2023-03-01T14:01:38;18.10;;;11.17;;
9712;SDS011;4895;50.926;6.870;2023-03-01T14:04:18;21.43;;;11.10;;
9712;SDS011;4895;50.926;6.870;2023-03-01T14:06:46;15.90;;;10.07;;
9712;SDS011;4895;50.926;6.870;2023-03-01T14:09:18;17.63;;;10.10;;
9712;SDS011;4895;50.926;6.870;2023-03-01T14:18:27;18.43;;;9.27;;
9712;SDS011;4895;50.926;6.870;2023-03-01T14:20:40;18.43;;;9.97;;
9712;SDS011;4895;50.926;6.870;2023-03-01T14:23:14;16.07;;;9.73;;
9712;SDS011;4895;50.926;6.870;2023-03-01T14:25:51;18.03;;;9.13;;
9712;SDS011;4895;50.926;6.870;2023-03-01T14:28:21;19.50;;;9.60;;
9712;SDS011;4895;50.926;6.870;2023-03-01T14:30:48;13.40;;;9.00;;
9712;SDS011;4895;50.926;6.870;2023-03-01T14:33:29;18.97;;;9.03;;
9712;SDS011;4895;50.926;6.870;2023-03-01T14:36:09;14.67;;;7.40;;
9712;SDS011;4895;50.926;6.870;2023-03-01T14:41:12;14.57;;;8.97;;
9712;SDS011;4895;50.926;6.870;2023-03-01T14:43:58;13.77;;;8.57;;
9712;SDS011;4895;50.926;6.870;2023-03-01T14:46:37;14.47;;;8.10;;
9712;SDS011;4895;50.926;6.870;2023-03-01T14:49:04;11.50;;;8.10;;
9712;SDS011;4895;50.926;6.870;2023-03-01T14:51:36;13.87;;;8.70;;
9712;SDS011;4895;50.926;6.870;2023-03-01T14:54:02;12.37;;;8.30;;
9712;SDS011;4895;50.926;6.870;2023-03-01T14:56:27;18.30;;;8.80;;
9712;SDS011;4895;50.926;6.870;2023-03-01T14:59:08;12.30;;;7.67;;
9712;SDS011;4895;50.926;6.870;2023-03-01T15:01:34;11.73;;;8.53;;
9712;SDS011;4895;50.926;6.870;2023-03-01T15:03:59;16.33;;;8.80;;
9712;SDS011;4895;50.926;6.870;2023-03-01T15:06:26;14.77;;;7.93;;
9712;SDS011;4895;50.926;6.870;2023-03-01T15:08:52;20.47;;;9.43;;
9712;SDS011;4895;50.926;6.870;2023-03-01T15:11:31;16.27;;;9.13;;
9712;SDS011;4895;50.926;6.870;2023-03-01T15:13:57;12.50;;;8.13;;
9712;SDS011;4895;50.926;6.870;2023-03-01T15:18:54;12.87;;;8.60;;
9712;SDS011;4895;50.926;6.870;2023-03-01T15:23:55;18.27;;;9.73;;
9712;SDS011;4895;50.926;6.870;2023-03-01T15:26:43;12.03;;;8.17;;
9712;SDS011;4895;50.926;6.870;2023-03-01T15:29:15;15.03;;;8.67;;
9712;SDS011;4895;50.926;6.870;2023-03-01T15:31:42;13.27;;;7.37;;
9712;SDS011;4895;50.926;6.870;2023-03-01T15:34:20;14.70;;;8.50;;
9712;SDS011;4895;50.926;6.870;2023-03-01T15:36:54;19.63;;;8.13;;
9712;SDS011;4895;50.926;6.870;2023-03-01T15:39:33;13.93;;;9.00;;
9712;SDS011;4895;50.926;6.870;2023-03-01T15:45:06;20.73;;;8.63;;
9712;SDS011;4895;50.926;6.870;2023-03-01T15:47:36;15.97;;;9.20;;
9712;SDS011;4895;50.926;6.870;2023-03-01T15:50:04;14.10;;;7.80;;
9712;SDS011;4895;50.926;6.870;2023-03-01T15:52:34;13.87;;;8.23;;
9712;SDS011;4895;50.926;6.870;2023-03-01T15:55:05;18.63;;;8.10;;
9712;SDS011;4895;50.926;6.870;2023-03-01T15:57:32;16.10;;;7.87;;
9712;SDS011;4895;50.926;6.870;2023-03-01T15:59:57;12.20;;;6.93;;
9712;SDS011;4895;50.926;6.870;2023-03-01T16:02:23;12.80;;;7.20;;
9712;SDS011;4895;50.926;6.870;2023-03-01T16:04:49;11.57;;;7.70;;
9712;SDS011;4895;50.926;6.870;2023-03-01T16:07:15;16.37;;;7.37;;
9712;SDS011;4895;50.926;6.870;2023-03-01T16:09:40;12.20;;;7.63;;
9712;SDS011;4895;50.926;6.870;2023-03-01T16:12:08;14.77;;;7.87;;
9712;SDS011;4895;50.926;6.870;2023-03-01T16:14:38;12.90;;;7.97;;
9712;SDS011;4895;50.926;6.870;2023-03-01T16:17:03;13.80;;;7.40;;
9712;SDS011;4895;50.926;6.870;2023-03-01T16:19:30;10.20;;;7.20;;
9712;SDS011;4895;50.926;6.870;2023-03-01T16:21:55;11.77;;;7.50;;
9712;SDS011;4895;50.926;6.870;2023-03-01T16:24:20;13.60;;;7.90;;
9712;SDS011;4895;50.926;6.870;2023-03-01T16:26:46;13.63;;;8.30;;
9712;SDS011;4895;50.926;6.870;2023-03-01T16:29:11;14.37;;;8.70;;
9712;SDS011;4895;50.926;6.870;2023-03-01T16:31:36;13.57;;;7.80;;
9712;SDS011;4895;50.926;6.870;2023-03-01T16:34:02;12.47;;;8.00;;
9712;SDS011;4895;50.926;6.870;2023-03-01T16:36:27;12.73;;;7.30;;
9712;SDS011;4895;50.926;6.870;2023-03-01T16:38:53;19.27;;;8.43;;
9712;SDS011;4895;50.926;6.870;2023-03-01T16:41:21;16.23;;;7.93;;
9712;SDS011;4895;50.926;6.870;2023-03-01T16:43:47;17.43;;;6.90;;
9712;SDS011;4895;50.926;6.870;2023-03-01T16:46:17;13.27;;;7.40;;
9712;SDS011;4895;50.926;6.870;2023-03-01T16:48:53;11.53;;;6.50;;
9712;SDS011;4895;50.926;6.870;2023-03-01T16:51:19;11.63;;;7.93;;
9712;SDS011;4895;50.926;6.870;2023-03-01T16:53:45;13.80;;;6.50;;
9712;SDS011;4895;50.926;6.870;2023-03-01T16:56:11;12.23;;;7.17;;
9712;SDS011;4895;50.926;6.870;2023-03-01T16:58:37;11.80;;;6.90;;
9712;SDS011;4895;50.926;6.870;2023-03-01T17:01:08;16.43;;;7.87;;
9712;SDS011;4895;50.926;6.870;2023-03-01T17:03:38;15.67;;;7.50;;
9712;SDS011;4895;50.926;6.870;2023-03-01T17:06:04;14.47;;;7.13;;
9712;SDS011;4895;50.926;6.870;2023-03-01T17:08:34;10.90;;;7.00;;
9712;SDS011;4895;50.926;6.870;2023-03-01T17:11:04;13.93;;;7.20;;